Time;durP1;ratioP1;P1;durP2;ratioP2;P2;SDS_P1;SDS_P2;PMS_P1;PMS_P2;Temp;Humidity;BMP_temperature;BMP_pressure;BME280_temperature;BME280_humidity;BME280_pressure;Samples;Min_cycle;Max_cycle;Signal;HPM_P1;HPM_P2
2023/05/11 00:02:44;;;;;;;19.45;13.00;;;16.00;81.40;;;;;;5069317;28;20583;-67
2023/05/11 00:08:57;;;;;;;19.20;12.60;;;16.10;81.60;;;;;;5071852;28;20058;-67
2023/05/11 00:11:23;;;;;;;17.65;11.85;;;16.00;81.60;;;;;;5074757;28;20044;-67
2023/05/11 00:13:48;;;;;;;20.35;13.18;;;16.00;81.60;;;;;;5074093;28;20038;-67
2023/05/11 00:16:14;;;;;;;22.95;13.88;;;16.00;81.70;;;;;;5066871;28;20025;-67
2023/05/11 00:18:40;;;;;;;19.88;13.40;;;16.00;81.70;;;;;;5074707;28;20412;-67
2023/05/11 00:21:06;;;;;;;20.67;13.07;;;16.00;81.80;;;;;;5056736;28;20457;-67
2023/05/11 00:23:32;;;;;;;21.90;14.25;;;16.00;81.70;;;;;;5057667;28;20037;-67
2023/05/11 00:25:57;;;;;;;21.98;14.20;;;16.00;81.80;;;;;;5070288;28;20021;-67
2023/05/11 00:28:23;;;;;;;19.92;12.52;;;16.00;81.70;;;;;;5071728;28;20048;-67
2023/05/11 00:30:49;;;;;;;22.23;13.55;;;16.00;81.70;;;;;;5066256;28;20035;-67
2023/05/11 00:33:15;;;;;;;20.88;13.93;;;16.00;81.70;;;;;;5073973;28;20426;-67
2023/05/11 00:35:41;;;;;;;19.98;12.52;;;16.00;81.70;;;;;;5067939;28;20028;-67
2023/05/11 00:38:07;;;;;;;22.38;13.00;;;16.00;82.40;;;;;;5066975;28;20123;-67
2023/05/11 00:40:33;;;;;;;19.52;12.57;;;16.00;81.80;;;;;;5069534;28;20128;-67
2023/05/11 00:42:59;;;;;;;19.23;12.57;;;16.00;81.80;;;;;;5065879;28;20032;-67
2023/05/11 00:45:26;;;;;;;20.08;13.40;;;16.00;81.80;;;;;;5072539;28;20028;-67
2023/05/11 00:47:51;;;;;;;21.40;13.15;;;16.00;81.90;;;;;;5074860;28;20111;-67
2023/05/11 00:50:17;;;;;;;19.92;13.40;;;16.00;81.90;;;;;;5074322;28;20115;-67
2023/05/11 00:52:44;;;;;;;20.90;13.98;;;16.00;81.90;;;;;;5074229;28;20051;-67
2023/05/11 00:55:12;;;;;;;23.25;13.93;;;16.00;81.90;;;;;;5068398;28;20063;-67
2023/05/11 00:57:38;;;;;;;21.63;13.32;;;16.00;82.00;;;;;;5074966;28;20024;-67
2023/05/11 01:00:06;;;;;;;18.70;13.65;;;16.00;82.00;;;;;;5068098;28;20017;-67
2023/05/11 01:02:32;;;;;;;21.95;13.88;;;16.00;82.10;;;;;;5074936;28;20032;-67
2023/05/11 01:04:59;;;;;;;20.40;13.30;;;16.00;82.10;;;;;;5063723;28;20025;-67
2023/05/11 01:07:50;;;;;;;22.63;13.82;;;15.90;82.10;;;;;;5071050;28;20123;-67
2023/05/11 01:10:26;;;;;;;19.48;12.65;;;16.00;82.10;;;;;;5072973;28;20365;-67
2023/05/11 01:13:08;;;;;;;26.10;15.80;;;16.00;82.20;;;;;;5062746;28;20418;-67
2023/05/11 01:15:49;;;;;;;22.73;15.13;;;15.90;82.10;;;;;;5054921;28;20024;-67
2023/05/11 01:18:24;;;;;;;24.25;15.10;;;15.90;82.10;;;;;;5044981;28;20056;-67
2023/05/11 01:20:55;;;;;;;21.85;14.18;;;15.90;82.10;;;;;;5064408;28;20445;-66
2023/05/11 01:23:27;;;;;;;25.13;15.88;;;15.90;82.20;;;;;;5063192;28;20024;-67
2023/05/11 01:26:07;;;;;;;25.85;16.35;;;15.90;82.20;;;;;;5066455;28;20032;-67
2023/05/11 01:28:44;;;;;;;22.15;14.80;;;15.90;82.20;;;;;;5055561;28;20029;-66
2023/05/11 01:31:12;;;;;;;21.60;13.98;;;15.90;82.40;;;;;;5065892;28;20051;-66
2023/05/11 01:33:57;;;;;;;22.40;14.52;;;15.90;82.30;;;;;;5074810;28;20028;-66
2023/05/11 01:36:33;;;;;;;22.38;13.85;;;15.90;82.40;;;;;;5073409;28;20138;-66
2023/05/11 01:39:07;;;;;;;20.77;13.38;;;15.80;82.40;;;;;;5063633;28;20044;-66
2023/05/11 01:41:34;;;;;;;21.58;13.77;;;15.80;82.50;;;;;;5067623;28;20089;-66
2023/05/11 01:44:04;;;;;;;21.83;14.13;;;15.80;82.60;;;;;;5072458;28;20017;-67
2023/05/11 01:46:33;;;;;;;20.80;13.18;;;15.80;82.70;;;;;;5050124;28;20027;-66
2023/05/11 01:49:01;;;;;;;27.38;12.75;;;15.80;82.70;;;;;;5074212;28;20048;-65
2023/05/11 01:51:38;;;;;;;22.70;13.07;;;15.80;82.80;;;;;;5072242;28;20028;-65
2023/05/11 01:54:08;;;;;;;21.50;13.95;;;15.80;82.90;;;;;;5074095;28;20032;-65
2023/05/11 01:56:36;;;;;;;17.88;12.82;;;15.80;82.90;;;;;;5069133;28;20031;-65
2023/05/11 01:59:02;;;;;;;22.30;14.70;;;15.80;83.00;;;;;;5072896;28;20024;-65
2023/05/11 02:01:29;;;;;;;22.33;14.52;;;15.80;83.00;;;;;;5072272;28;20120;-65
2023/05/11 02:03:56;;;;;;;22.00;13.93;;;15.80;83.10;;;;;;5074635;28;20029;-65
2023/05/11 02:06:24;;;;;;;21.42;14.05;;;15.80;83.10;;;;;;5070987;28;20044;-65
2023/05/11 02:08:51;;;;;;;21.42;12.75;;;15.80;83.20;;;;;;5056533;28;20032;-65
2023/05/11 02:11:19;;;;;;;21.92;13.80;;;15.80;83.20;;;;;;5070397;28;20056;-65
2023/05/11 02:13:46;;;;;;;20.95;13.50;;;15.80;83.30;;;;;;5073124;28;20029;-65
2023/05/11 02:16:14;;;;;;;21.92;13.05;;;15.70;83.30;;;;;;5071562;28;20323;-65
2023/05/11 02:18:41;;;;;;;21.08;12.95;;;15.70;83.30;;;;;;5073226;28;20044;-65
2023/05/11 02:21:10;;;;;;;22.45;13.30;;;15.70;83.30;;;;;;5072935;28;20021;-65
2023/05/11 02:23:39;;;;;;;21.90;13.25;;;15.70;83.30;;;;;;5071902;28;20021;-67
2023/05/11 02:26:07;;;;;;;22.10;13.57;;;15.70;83.30;;;;;;5072074;28;20078;-65
2023/05/11 02:28:33;;;;;;;22.95;13.82;;;15.70;83.30;;;;;;5070519;28;20025;-65
2023/05/11 02:31:04;;;;;;;20.73;13.35;;;15.70;83.40;;;;;;5072592;28;20389;-65
2023/05/11 02:33:35;;;;;;;19.10;12.75;;;15.70;83.50;;;;;;5055471;28;20115;-66
2023/05/11 02:36:02;;;;;;;21.67;14.13;;;15.70;83.50;;;;;;5071916;28;20025;-65
2023/05/11 02:38:36;;;;;;;20.58;13.25;;;15.70;83.60;;;;;;5070489;28;20119;-65
2023/05/11 02:41:12;;;;;;;23.90;14.38;;;15.70;83.50;;;;;;5072635;28;20039;-65
2023/05/11 02:43:45;;;;;;;21.52;14.18;;;15.70;83.50;;;;;;5071783;28;20403;-65
2023/05/11 02:46:16;;;;;;;23.10;13.68;;;15.70;83.50;;;;;;5085557;28;20029;-65
2023/05/11 02:48:46;;;;;;;22.77;14.48;;;15.70;83.60;;;;;;5072752;28;20033;-65
2023/05/11 02:51:16;;;;;;;23.30;14.75;;;15.70;83.60;;;;;;5083875;28;20044;-65
2023/05/11 02:53:48;;;;;;;24.65;15.95;;;15.70;83.60;;;;;;5078931;28;20027;-65
2023/05/11 02:56:15;;;;;;;21.83;14.50;;;15.70;83.60;;;;;;5076203;28;20067;-65
2023/05/11 02:58:41;;;;;;;23.77;14.35;;;15.70;83.70;;;;;;5058418;28;20028;-65
2023/05/11 03:01:19;;;;;;;25.73;14.90;;;15.70;83.70;;;;;;5076765;28;20050;-64
2023/05/11 03:03:45;;;;;;;25.13;16.48;;;15.70;83.80;;;;;;5075914;28;20032;-65
2023/05/11 03:06:11;;;;;;;25.95;15.80;;;15.70;83.80;;;;;;5067628;28;20078;-65
2023/05/11 03:08:38;;;;;;;27.17;15.85;;;15.70;83.80;;;;;;5078054;28;20491;-65
2023/05/11 03:11:04;;;;;;;24.08;15.18;;;15.70;83.90;;;;;;5076036;28;20050;-65
2023/05/11 03:13:31;;;;;;;24.40;16.27;;;15.70;83.90;;;;;;5075582;28;20361;-65
2023/05/11 03:16:01;;;;;;;25.25;15.65;;;15.70;83.90;;;;;;5082280;28;20081;-64
2023/05/11 03:18:30;;;;;;;26.25;16.08;;;15.70;83.90;;;;;;5071699;28;20453;-65
2023/05/11 03:20:58;;;;;;;23.92;15.73;;;15.70;83.90;;;;;;5077764;28;20032;-65
2023/05/11 03:23:25;;;;;;;24.65;15.25;;;15.70;83.90;;;;;;5075146;28;20120;-65
2023/05/11 03:25:51;;;;;;;23.02;15.25;;;15.60;83.80;;;;;;5058533;28;20020;-65
2023/05/11 03:28:18;;;;;;;23.33;15.52;;;15.60;83.80;;;;;;5071958;28;20432;-65
2023/05/11 03:30:54;;;;;;;24.45;15.45;;;15.60;83.80;;;;;;5075889;28;20040;-65
2023/05/11 03:33:20;;;;;;;24.52;15.25;;;15.60;83.80;;;;;;5075885;28;20020;-65
2023/05/11 03:35:49;;;;;;;20.90;14.32;;;15.60;83.80;;;;;;5075181;28;20459;-65
2023/05/11 03:38:21;;;;;;;21.77;14.82;;;15.60;83.80;;;;;;5070207;28;20101;-65
2023/05/11 03:40:51;;;;;;;23.03;15.53;;;15.60;83.90;;;;;;5075835;28;20358;-66
2023/05/11 03:43:18;;;;;;;23.40;14.90;;;15.60;83.80;;;;;;5087183;28;20029;-67
2023/05/11 03:45:47;;;;;;;22.60;14.18;;;15.60;83.90;;;;;;5074748;28;20041;-67
2023/05/11 03:48:15;;;;;;;23.10;14.90;;;15.60;83.90;;;;;;5057158;28;20028;-67
2023/05/11 03:50:42;;;;;;;20.65;13.77;;;15.60;83.90;;;;;;5066976;28;20115;-67
2023/05/11 03:53:09;;;;;;;23.42;13.88;;;15.60;83.90;;;;;;5074810;28;20036;-67
2023/05/11 03:55:36;;;;;;;22.55;13.73;;;15.60;83.90;;;;;;5074508;28;20024;-67
2023/05/11 03:58:07;;;;;;;20.67;13.90;;;15.60;83.90;;;;;;5082679;28;20108;-67
2023/05/11 04:00:37;;;;;;;23.52;14.18;;;15.60;83.90;;;;;;5062849;28;20106;-67
2023/05/11 04:03:05;;;;;;;19.05;12.88;;;15.60;83.90;;;;;;5058003;28;20029;-67
2023/05/11 04:05:31;;;;;;;18.60;13.25;;;15.60;83.90;;;;;;5070225;28;20017;-66
2023/05/11 04:08:00;;;;;;;20.40;14.10;;;15.60;83.90;;;;;;5078075;28;20033;-66
2023/05/11 04:10:26;;;;;;;20.17;12.30;;;15.60;83.90;;;;;;5062548;28;20122;-66
2023/05/11 04:12:52;;;;;;;20.08;13.82;;;15.50;83.80;;;;;;5054863;28;20164;-66
2023/05/11 04:15:18;;;;;;;20.20;12.52;;;15.50;83.80;;;;;;5072700;28;20051;-65
2023/05/11 04:17:44;;;;;;;19.40;13.43;;;15.60;83.90;;;;;;5064638;28;20025;-65
2023/05/11 04:20:12;;;;;;;18.40;12.23;;;15.50;83.80;;;;;;5056623;28;20029;-66
2023/05/11 04:22:38;;;;;;;18.95;12.43;;;15.60;83.90;;;;;;5054760;28;20063;-66
2023/05/11 04:25:04;;;;;;;18.27;12.35;;;15.50;83.80;;;;;;5074018;28;20052;-65
2023/05/11 04:27:34;;;;;;;20.25;13.05;;;15.50;83.80;;;;;;5062593;28;20029;-65
2023/05/11 04:30:00;;;;;;;20.17;13.40;;;15.50;83.80;;;;;;5071940;28;20453;-65
2023/05/11 04:32:29;;;;;;;19.77;12.52;;;15.50;83.90;;;;;;5061459;28;20461;-65
2023/05/11 04:34:55;;;;;;;19.83;13.05;;;15.60;83.90;;;;;;5071084;28;20020;-65
2023/05/11 04:37:23;;;;;;;19.75;12.40;;;15.50;84.00;;;;;;5063269;28;20346;-65
2023/05/11 04:39:50;;;;;;;18.90;11.45;;;15.50;83.90;;;;;;5058300;28;20025;-67
2023/05/11 04:42:16;;;;;;;20.55;12.93;;;15.50;83.90;;;;;;5057296;28;20415;-66
2023/05/11 04:44:43;;;;;;;17.77;12.55;;;15.50;83.90;;;;;;5090099;28;20044;-67
2023/05/11 04:47:10;;;;;;;18.67;11.88;;;15.60;83.90;;;;;;5067511;28;20055;-67
2023/05/11 04:49:36;;;;;;;19.65;12.80;;;15.50;83.90;;;;;;5074395;28;20052;-67
2023/05/11 04:52:02;;;;;;;20.30;13.00;;;15.50;83.90;;;;;;5071723;28;20048;-67
2023/05/11 04:54:29;;;;;;;18.83;12.40;;;15.50;83.90;;;;;;5065092;28;20116;-67
2023/05/11 04:56:55;;;;;;;18.48;12.60;;;15.50;83.90;;;;;;5071930;28;20024;-67
2023/05/11 04:59:21;;;;;;;18.55;11.70;;;15.50;83.90;;;;;;5064231;28;20082;-67
2023/05/11 05:01:47;;;;;;;18.90;12.45;;;15.50;83.90;;;;;;5051981;28;20414;-67
2023/05/11 05:04:13;;;;;;;18.80;11.75;;;15.50;83.90;;;;;;5054985;28;20457;-67
2023/05/11 05:06:39;;;;;;;19.60;12.40;;;15.50;83.90;;;;;;5073396;28;20127;-67
2023/05/11 05:09:05;;;;;;;20.75;13.82;;;15.50;83.90;;;;;;5063176;28;20129;-67
2023/05/11 05:11:31;;;;;;;21.38;12.40;;;15.50;83.90;;;;;;5071368;28;20380;-67
2023/05/11 05:13:57;;;;;;;17.30;12.13;;;15.50;83.80;;;;;;5065299;28;20029;-67
2023/05/11 05:16:22;;;;;;;19.75;13.40;;;15.50;83.90;;;;;;5062465;28;20031;-67
2023/05/11 05:18:49;;;;;;;19.63;12.38;;;15.50;83.90;;;;;;5052361;28;20053;-67
2023/05/11 05:21:14;;;;;;;21.20;13.65;;;15.50;83.90;;;;;;5070242;28;20109;-66
2023/05/11 05:23:40;;;;;;;21.25;13.35;;;15.50;84.00;;;;;;5072178;28;20070;-66
2023/05/11 05:26:06;;;;;;;23.20;13.55;;;15.50;84.00;;;;;;5072048;28;20035;-66
2023/05/11 05:28:34;;;;;;;18.77;12.30;;;15.50;84.00;;;;;;5055310;28;20395;-66
2023/05/11 05:31:01;;;;;;;20.42;13.18;;;15.50;84.00;;;;;;5064282;28;20029;-66
2023/05/11 05:33:27;;;;;;;19.85;12.57;;;15.50;83.90;;;;;;5083652;28;20024;-66
2023/05/11 05:35:53;;;;;;;22.20;13.95;;;15.60;84.00;;;;;;5047474;28;20542;-66
2023/05/11 05:38:19;;;;;;;20.85;13.68;;;15.60;83.90;;;;;;5043503;28;20035;-67
2023/05/11 05:40:45;;;;;;;18.88;13.55;;;15.60;83.90;;;;;;5066934;28;20013;-67
2023/05/11 05:43:12;;;;;;;30.83;13.88;;;15.60;83.90;;;;;;5071162;28;20365;-67
2023/05/11 05:45:38;;;;;;;66.78;17.50;;;15.60;83.90;;;;;;5067051;28;20032;-66
2023/05/11 05:48:05;;;;;;;22.95;14.10;;;15.60;83.90;;;;;;5071211;28;20027;-66
2023/05/11 05:50:32;;;;;;;18.40;11.85;;;15.60;83.90;;;;;;5065425;28;20025;-66
2023/05/11 05:52:58;;;;;;;19.55;12.25;;;15.60;83.90;;;;;;5063665;28;20479;-67
2023/05/11 05:55:26;;;;;;;17.88;11.57;;;15.60;83.80;;;;;;5050593;28;20437;-66
2023/05/11 05:57:53;;;;;;;17.65;11.05;;;15.60;83.80;;;;;;5081614;28;20449;-65
2023/05/11 06:00:19;;;;;;;16.27;11.35;;;15.60;83.80;;;;;;5049232;28;20036;-67
2023/05/11 06:02:53;;;;;;;16.80;10.07;;;15.60;83.80;;;;;;5069638;28;20457;-67
2023/05/11 06:05:25;;;;;;;17.35;10.55;;;15.60;83.70;;;;;;5071332;28;20059;-66
2023/05/11 06:07:51;;;;;;;14.50;9.75;;;15.60;83.70;;;;;;5066438;28;20159;-66
2023/05/11 06:10:17;;;;;;;16.08;9.77;;;15.60;83.60;;;;;;5070244;28;20096;-68
2023/05/11 06:12:43;;;;;;;14.32;9.00;;;15.70;83.70;;;;;;5071742;28;20044;-66
2023/05/11 06:15:10;;;;;;;13.90;8.80;;;15.70;83.70;;;;;;5047774;28;20032;-65
2023/05/11 06:17:38;;;;;;;13.95;9.15;;;15.70;83.70;;;;;;5071071;28;20039;-66
2023/05/11 06:20:05;;;;;;;14.30;8.93;;;15.70;83.80;;;;;;5040628;28;20021;-65
2023/05/11 06:22:31;;;;;;;13.82;8.18;;;15.70;83.60;;;;;;5073031;28;20031;-67
2023/05/11 06:24:57;;;;;;;13.75;8.90;;;15.70;83.60;;;;;;5071660;28;20017;-65
2023/05/11 06:27:24;;;;;;;15.82;8.85;;;15.70;83.60;;;;;;5061737;28;20135;-66
2023/05/11 06:29:54;;;;;;;12.02;7.53;;;15.80;83.60;;;;;;5072436;28;20115;-66
2023/05/11 06:32:20;;;;;;;11.85;7.32;;;15.80;83.40;;;;;;5070316;28;20025;-66
2023/05/11 06:34:46;;;;;;;12.48;7.22;;;15.80;83.30;;;;;;5066869;28;20019;-65
2023/05/11 06:37:19;;;;;;;10.43;6.43;;;15.90;83.20;;;;;;5068387;28;20025;-66
2023/05/11 06:39:47;;;;;;;9.80;5.88;;;16.00;83.00;;;;;;5052609;28;20017;-66
2023/05/11 06:42:13;;;;;;;10.45;6.07;;;16.10;82.80;;;;;;5052491;28;20017;-65
2023/05/11 06:44:40;;;;;;;9.82;5.93;;;16.20;82.70;;;;;;5072571;28;20107;-67
2023/05/11 06:47:07;;;;;;;10.43;5.75;;;16.20;82.50;;;;;;5062627;28;20012;-67
2023/05/11 06:49:33;;;;;;;9.70;5.20;;;16.30;82.90;;;;;;5064376;28;20031;-68
2023/05/11 06:51:59;;;;;;;10.40;6.25;;;16.30;82.00;;;;;;5069181;28;20103;-65
2023/05/11 06:54:25;;;;;;;11.70;7.28;;;16.30;81.90;;;;;;5070315;28;20430;-66
2023/05/11 06:56:51;;;;;;;15.50;11.10;;;16.30;81.80;;;;;;5062212;28;20136;-66
2023/05/11 06:59:16;;;;;;;12.75;8.50;;;16.30;81.80;;;;;;5069378;28;20031;-68
2023/05/11 07:01:42;;;;;;;11.95;7.22;;;16.40;81.80;;;;;;5069049;28;20040;-70
2023/05/11 07:04:08;;;;;;;11.35;7.22;;;16.40;81.70;;;;;;5071416;28;20024;-69
2023/05/11 07:06:34;;;;;;;13.00;7.88;;;16.50;81.70;;;;;;5065623;28;20025;-70
2023/05/11 07:09:02;;;;;;;15.35;8.13;;;16.50;81.50;;;;;;5068248;28;20333;-66
2023/05/11 07:11:29;;;;;;;15.32;9.52;;;16.50;81.50;;;;;;5056209;28;20136;-67
2023/05/11 07:13:55;;;;;;;14.50;8.75;;;16.60;81.30;;;;;;5061750;28;20032;-66
2023/05/11 07:16:22;;;;;;;13.82;9.18;;;16.60;81.30;;;;;;5059445;28;20021;-66
2023/05/11 07:18:48;;;;;;;17.70;10.02;;;16.60;81.30;;;;;;5069895;28;20384;-67
2023/05/11 07:21:14;;;;;;;17.05;10.77;;;16.50;81.40;;;;;;5046326;28;20044;-68
2023/05/11 07:23:39;;;;;;;17.25;12.05;;;16.60;81.50;;;;;;5072116;28;20032;-68
2023/05/11 07:26:08;;;;;;;20.63;13.40;;;16.50;81.40;;;;;;5068963;28;20208;-68
2023/05/11 07:28:35;;;;;;;20.92;13.43;;;16.50;81.40;;;;;;5063807;28;20423;-66
2023/05/11 07:31:01;;;;;;;20.23;14.18;;;16.60;81.40;;;;;;5067657;28;20039;-66
2023/05/11 07:33:27;;;;;;;23.25;15.52;;;16.60;81.40;;;;;;5071684;28;20028;-65
2023/05/11 07:35:53;;;;;;;27.75;17.83;;;16.60;81.40;;;;;;5059266;28;20519;-66
2023/05/11 07:38:19;;;;;;;31.27;22.42;;;16.70;81.40;;;;;;5065944;28;20028;-68
2023/05/11 07:40:44;;;;;;;31.52;22.20;;;16.70;81.40;;;;;;5059686;28;20082;-67
2023/05/11 07:43:10;;;;;;;27.73;18.70;;;16.80;81.40;;;;;;5076294;28;20025;-65
2023/05/11 07:45:36;;;;;;;24.27;16.35;;;16.80;81.20;;;;;;5065904;28;20121;-66
2023/05/11 07:48:02;;;;;;;26.40;17.52;;;16.80;81.10;;;;;;5069606;28;20039;-69
2023/05/11 07:50:28;;;;;;;23.60;17.45;;;16.90;81.10;;;;;;5066384;28;20450;-70
2023/05/11 07:52:53;;;;;;;23.45;16.35;;;17.00;81.00;;;;;;5074247;28;20357;-67
2023/05/11 07:55:23;;;;;;;23.45;16.75;;;17.00;80.70;;;;;;5069100;28;20480;-68
2023/05/11 07:57:51;;;;;;;24.67;17.48;;;17.10;80.60;;;;;;5060455;28;20024;-68
2023/05/11 08:00:18;;;;;;;26.38;18.35;;;17.20;80.60;;;;;;5058328;28;20033;-65
2023/05/11 08:02:43;;;;;;;32.72;24.42;;;17.20;80.40;;;;;;5069373;28;20112;-65
2023/05/11 08:05:09;;;;;;;42.90;29.73;;;17.30;80.20;;;;;;5074238;28;20104;-65
2023/05/11 08:07:35;;;;;;;41.63;30.35;;;17.40;80.20;;;;;;5056961;28;20090;-67
2023/05/11 08:10:01;;;;;;;30.38;22.85;;;17.50;80.00;;;;;;5063349;28;20020;-67
2023/05/11 08:12:26;;;;;;;36.45;27.88;;;17.60;79.70;;;;;;5073809;28;20330;-68
2023/05/11 08:14:52;;;;;;;43.63;33.35;;;17.70;79.60;;;;;;5058150;28;20067;-68
2023/05/11 08:17:18;;;;;;;34.13;25.52;;;17.70;79.40;;;;;;5067859;28;20048;-67
2023/05/11 08:19:44;;;;;;;33.80;24.75;;;17.80;79.30;;;;;;5070532;28;20434;-65
2023/05/11 08:22:09;;;;;;;31.20;23.05;;;17.80;79.10;;;;;;5069042;28;20055;-67
2023/05/11 08:24:35;;;;;;;30.83;21.30;;;17.90;78.90;;;;;;5068069;28;20028;-66
2023/05/11 08:27:01;;;;;;;30.52;22.80;;;18.00;78.70;;;;;;5052751;28;20040;-64
2023/05/11 08:29:30;;;;;;;30.05;21.52;;;18.20;78.40;;;;;;5061390;28;20025;-65
2023/05/11 08:31:57;;;;;;;30.80;22.30;;;18.40;77.80;;;;;;5061989;28;20033;-65
2023/05/11 08:34:23;;;;;;;29.48;22.58;;;18.50;77.50;;;;;;5058924;28;20104;-66
2023/05/11 08:36:49;;;;;;;32.53;22.33;;;18.50;77.30;;;;;;5054932;28;20478;-65
2023/05/11 08:39:15;;;;;;;28.23;21.65;;;18.50;76.90;;;;;;5061444;28;20070;-67
2023/05/11 08:41:41;;;;;;;27.80;20.55;;;18.60;76.60;;;;;;5054897;28;20096;-65
2023/05/11 08:44:09;;;;;;;27.60;20.52;;;18.80;76.40;;;;;;5055151;28;20036;-66
2023/05/11 08:46:38;;;;;;;27.77;20.42;;;19.10;75.80;;;;;;5056260;28;20429;-65
2023/05/11 08:49:06;;;;;;;26.88;18.88;;;19.30;75.20;;;;;;5066842;28;20087;-66
2023/05/11 08:51:32;;;;;;;25.92;20.17;;;19.40;74.70;;;;;;5067330;28;20029;-66
2023/05/11 08:53:58;;;;;;;25.67;19.08;;;19.70;74.50;;;;;;5057592;28;20083;-67
2023/05/11 08:56:25;;;;;;;26.38;18.75;;;20.00;73.90;;;;;;5066519;28;20020;-67
2023/05/11 08:58:53;;;;;;;26.35;19.83;;;20.20;73.00;;;;;;5055998;28;20025;-67
2023/05/11 09:01:22;;;;;;;26.15;19.98;;;20.30;72.50;;;;;;5055179;28;20052;-66
2023/05/11 09:03:48;;;;;;;34.40;27.38;;;20.10;72.50;;;;;;5062845;28;20083;-68
2023/05/11 09:06:17;;;;;;;32.28;24.48;;;19.90;73.00;;;;;;5056116;28;20039;-66
2023/05/11 09:08:44;;;;;;;31.65;24.77;;;19.60;73.30;;;;;;5054785;28;20029;-66
2023/05/11 09:11:10;;;;;;;28.58;21.98;;;19.30;73.80;;;;;;5059598;28;20048;-65
2023/05/11 09:13:36;;;;;;;30.40;20.77;;;19.10;74.40;;;;;;5072568;28;20035;-66
2023/05/11 09:16:02;;;;;;;27.83;20.42;;;18.90;74.60;;;;;;5055707;28;20033;-66
2023/05/11 09:18:28;;;;;;;27.00;19.10;;;18.70;74.80;;;;;;5054978;28;20049;-67
2023/05/11 09:20:54;;;;;;;36.25;27.95;;;18.60;74.90;;;;;;5054624;28;20099;-67
2023/05/11 09:23:26;;;;;;;27.10;20.88;;;18.50;75.10;;;;;;5064605;28;20333;-66
2023/05/11 09:25:52;;;;;;;26.98;19.38;;;18.40;75.10;;;;;;5058600;28;20029;-66
2023/05/11 09:28:23;;;;;;;27.10;19.88;;;18.20;75.30;;;;;;5056835;28;20029;-65
2023/05/11 09:30:49;;;;;;;23.10;17.77;;;18.20;75.30;;;;;;5066319;28;20360;-65
2023/05/11 09:33:24;;;;;;;25.10;18.90;;;18.10;75.60;;;;;;5071328;28;20024;-67
2023/05/11 09:35:50;;;;;;;23.00;17.42;;;18.10;75.90;;;;;;5060642;28;20025;-66
2023/05/11 09:38:19;;;;;;;24.25;18.77;;;18.10;75.90;;;;;;5068994;28;20028;-65
2023/05/11 09:40:54;;;;;;;25.85;18.85;;;18.00;75.90;;;;;;5072850;28;20031;-67
2023/05/11 09:43:25;;;;;;;28.63;19.55;;;18.00;76.00;;;;;;5060227;28;20441;-66
2023/05/11 09:45:53;;;;;;;26.33;19.90;;;18.00;76.00;;;;;;5070352;28;20037;-67
2023/05/11 09:48:19;;;;;;;27.27;21.02;;;17.90;76.00;;;;;;5059641;28;20040;-67
2023/05/11 09:50:49;;;;;;;40.30;32.08;;;17.90;76.20;;;;;;5072519;28;20449;-67
2023/05/11 09:53:16;;;;;;;28.65;20.73;;;17.90;76.30;;;;;;5069918;28;20055;-66
2023/05/11 09:55:51;;;;;;;25.42;19.23;;;18.00;76.10;;;;;;5069542;28;20040;-67
2023/05/11 09:58:16;;;;;;;26.00;18.90;;;18.00;75.90;;;;;;5073412;28;20025;-66
2023/05/11 10:00:52;;;;;;;24.45;17.92;;;18.00;76.00;;;;;;5070688;28;20369;-67
2023/05/11 10:03:19;;;;;;;32.13;23.45;;;18.00;76.20;;;;;;5058505;28;20052;-66
2023/05/11 10:05:58;;;;;;;26.85;19.05;;;18.00;76.20;;;;;;5057511;28;20369;-67
2023/05/11 10:08:29;;;;;;;23.67;18.10;;;18.10;76.40;;;;;;5064648;28;20039;-67
2023/05/11 10:10:56;;;;;;;23.30;17.15;;;18.10;76.60;;;;;;5078848;28;20124;-67
2023/05/11 10:13:22;;;;;;;24.80;16.88;;;18.10;76.80;;;;;;5067188;28;20055;-66
2023/05/11 10:15:53;;;;;;;22.10;15.93;;;18.10;76.70;;;;;;5070206;28;20025;-67
2023/05/11 10:18:19;;;;;;;20.23;15.57;;;18.20;76.60;;;;;;5083080;28;20024;-67
2023/05/11 10:20:45;;;;;;;23.17;16.42;;;18.20;76.60;;;;;;5054947;28;20339;-67
2023/05/11 10:23:12;;;;;;;21.30;14.90;;;18.40;76.50;;;;;;5072737;28;20154;-67
2023/05/11 10:25:38;;;;;;;22.17;15.93;;;18.40;76.20;;;;;;5071035;28;20089;-66
2023/05/11 10:28:05;;;;;;;22.30;16.55;;;18.50;76.30;;;;;;5067998;28;20464;-67
2023/05/11 10:30:33;;;;;;;22.95;16.00;;;18.60;76.20;;;;;;5067137;28;20111;-67
2023/05/11 10:33:03;;;;;;;25.08;15.57;;;18.70;76.30;;;;;;5068454;28;20040;-68
2023/05/11 10:35:29;;;;;;;21.77;15.63;;;18.80;76.30;;;;;;5069741;28;20032;-67
2023/05/11 10:37:55;;;;;;;22.65;14.85;;;18.80;76.10;;;;;;5064846;28;20033;-67
2023/05/11 10:40:21;;;;;;;21.42;15.48;;;18.80;75.80;;;;;;5063986;28;20024;-68
2023/05/11 10:43:11;;;;;;;22.20;15.25;;;18.80;75.70;;;;;;5068039;28;20027;-67
2023/05/11 10:46:14;;;;;;;19.25;14.00;;;18.80;75.80;;;;;;5070295;28;20335;-68
2023/05/11 10:49:00;;;;;;;17.88;13.30;;;18.70;75.90;;;;;;5070458;28;20330;-67
2023/05/11 10:51:50;;;;;;;21.42;13.90;;;18.70;76.00;;;;;;5065415;28;20067;-67
2023/05/11 10:54:47;;;;;;;18.42;12.85;;;18.60;75.90;;;;;;5061159;28;20357;-68
2023/05/11 10:57:38;;;;;;;19.98;13.68;;;18.60;75.60;;;;;;5067383;28;20047;-67
2023/05/11 11:00:18;;;;;;;18.88;12.98;;;18.60;75.70;;;;;;5065061;28;20453;-68
2023/05/11 11:02:44;;;;;;;18.58;13.45;;;18.60;75.50;;;;;;5063808;28;20051;-65
2023/05/11 11:05:14;;;;;;;17.98;13.68;;;18.50;75.60;;;;;;5069982;28;20115;-65
2023/05/11 11:08:02;;;;;;;22.50;16.13;;;18.50;75.60;;;;;;5064145;28;20020;-66
2023/05/11 11:10:31;;;;;;;23.33;16.75;;;18.40;75.60;;;;;;5067746;28;20286;-67
2023/05/11 11:13:08;;;;;;;27.17;20.40;;;18.30;75.90;;;;;;5064817;28;20032;-68
2023/05/11 11:15:52;;;;;;;25.25;19.67;;;18.30;76.10;;;;;;5073768;28;20175;-68
2023/05/11 11:18:30;;;;;;;29.38;20.27;;;18.20;76.90;;;;;;5076194;28;20154;-68
2023/05/11 11:20:57;;;;;;;28.65;21.10;;;18.10;76.40;;;;;;5075035;28;20028;-67
2023/05/11 11:23:49;;;;;;;29.02;21.33;;;18.00;76.70;;;;;;5056420;28;20409;-68
2023/05/11 11:26:36;;;;;;;28.17;20.95;;;17.90;76.80;;;;;;5062212;28;20151;-67
2023/05/11 11:29:09;;;;;;;29.48;22.77;;;17.80;77.00;;;;;;5062590;28;20477;-67
2023/05/11 11:31:36;;;;;;;28.13;19.58;;;17.80;77.30;;;;;;5065405;28;20020;-67
2023/05/11 11:34:23;;;;;;;21.70;17.85;;;17.70;77.30;;;;;;5071669;28;20177;-68
2023/05/11 11:36:59;;;;;;;22.75;15.85;;;17.60;77.10;;;;;;5085620;28;20021;-68
2023/05/11 11:39:41;;;;;;;22.45;15.70;;;17.50;77.10;;;;;;5074663;28;20082;-66
2023/05/11 11:42:14;;;;;;;22.33;16.35;;;17.50;77.00;;;;;;5067345;28;20425;-67
2023/05/11 11:44:41;;;;;;;21.95;16.08;;;17.40;77.20;;;;;;5061012;28;20116;-68
2023/05/11 11:47:15;;;;;;;25.88;18.85;;;17.30;77.60;;;;;;5056725;28;20392;-68
2023/05/11 11:49:43;;;;;;;24.38;17.85;;;17.30;77.90;;;;;;5062853;28;20024;-68
2023/05/11 11:52:33;;;;;;;22.52;15.68;;;17.20;78.10;;;;;;5064074;28;20086;-67
2023/05/11 11:55:01;;;;;;;21.25;15.30;;;17.20;78.30;;;;;;5053360;28;20365;-68
2023/05/11 11:57:32;;;;;;;22.42;16.48;;;17.20;78.40;;;;;;5069051;28;20036;-66
2023/05/11 12:00:20;;;;;;;22.90;16.70;;;17.10;78.60;;;;;;5063106;28;20045;-66
2023/05/11 12:02:46;;;;;;;21.30;14.82;;;17.20;78.80;;;;;;5066803;28;20087;-66
2023/05/11 12:05:18;;;;;;;21.75;14.82;;;17.10;78.90;;;;;;5061694;28;20028;-65
2023/05/11 12:07:49;;;;;;;20.67;15.00;;;17.10;79.00;;;;;;5062056;28;20093;-65
2023/05/11 12:10:17;;;;;;;19.98;14.15;;;17.10;79.10;;;;;;5062847;28;20052;-65
2023/05/11 12:12:50;;;;;;;20.85;15.52;;;17.00;79.10;;;;;;5061999;28;20093;-64
2023/05/11 12:15:32;;;;;;;21.58;15.60;;;17.00;79.20;;;;;;5060363;28;20073;-65
2023/05/11 12:18:01;;;;;;;19.60;14.65;;;17.00;79.40;;;;;;5066179;28;20100;-64
2023/05/11 12:20:27;;;;;;;24.30;16.70;;;17.00;79.40;;;;;;5057912;28;20025;-67
2023/05/11 12:22:53;;;;;;;22.25;16.92;;;17.10;79.50;;;;;;5056155;28;20028;-65
2023/05/11 12:25:19;;;;;;;21.92;17.02;;;17.10;79.50;;;;;;5051474;28;20020;-65
2023/05/11 12:28:00;;;;;;;25.80;17.33;;;17.10;79.60;;;;;;5050500;28;20024;-64
2023/05/11 12:30:29;;;;;;;23.27;17.17;;;17.10;79.70;;;;;;5060023;28;20421;-65
2023/05/11 12:32:55;;;;;;;24.88;17.90;;;17.10;79.80;;;;;;5067286;28;20040;-65
2023/05/11 12:35:25;;;;;;;25.17;18.73;;;17.10;79.90;;;;;;5057423;28;20043;-66
2023/05/11 12:37:52;;;;;;;24.90;17.35;;;17.20;80.00;;;;;;5060763;28;20040;-66
2023/05/11 12:40:18;;;;;;;22.77;16.95;;;17.20;80.10;;;;;;5061549;28;20347;-66
2023/05/11 12:42:58;;;;;;;24.48;17.35;;;17.20;80.10;;;;;;5065308;28;20074;-66